createdAt,value
2023-03-27T00:03:03.172Z,96733.91
2023-03-27T00:08:09.388Z,96741.94
2023-03-27T00:13:13.652Z,96743.53
2023-03-27T00:18:20.185Z,96742.31
2023-03-27T00:23:24.477Z,96753.91
2023-03-27T00:28:30.346Z,96745.09
2023-03-27T00:33:36.022Z,96745.66
2023-03-27T00:38:40.593Z,96736.88
2023-03-27T00:43:45.520Z,96745.91
2023-03-27T00:48:52.440Z,96733.09
2023-03-27T00:53:57.535Z,96735.28
2023-03-27T00:59:04.017Z,96737.63
2023-03-27T01:04:10.020Z,96724.94
2023-03-27T01:09:20.551Z,96724.31
2023-03-27T01:14:32.732Z,96722.47
2023-03-27T01:20:14.317Z,96721.84
2023-03-27T01:25:56.937Z,96723.50
2023-03-27T01:31:10.282Z,96710.72
2023-03-27T01:36:40.476Z,96704.38
2023-03-27T01:41:52.888Z,96706.03
2023-03-27T01:47:00.724Z,96705.16
2023-03-27T01:52:09.235Z,96691.91
2023-03-27T01:57:20.503Z,96685.75
2023-03-27T02:02:28.130Z,96690.81
2023-03-27T02:07:35.756Z,96682.59
2023-03-27T02:12:46.918Z,96680.44
2023-03-27T02:17:57.156Z,96671.88
2023-03-27T02:23:01.977Z,96674.41
2023-03-27T02:28:34.861Z,96668.06
2023-03-27T02:33:48.864Z,96667.44
2023-03-27T02:38:59.310Z,96664.47
2023-03-27T02:44:13.075Z,96666.88
2023-03-27T02:49:34.468Z,96666.88
2023-03-27T02:54:42.150Z,96667.94
2023-03-27T02:59:52.120Z,96682.34
2023-03-27T03:05:00.992Z,96685.94
2023-03-27T03:10:11.730Z,96687.72
2023-03-27T03:15:18.613Z,96694.50
2023-03-27T03:20:24.685Z,96696.31
2023-03-27T03:25:30.734Z,96690.94
2023-03-27T03:30:42.131Z,96684.13
2023-03-27T03:35:49.722Z,96693.09
2023-03-27T03:41:11.472Z,96701.13
2023-03-27T03:46:17.283Z,96694.25
2023-03-27T03:51:22.246Z,96705.06
2023-03-27T03:56:27.824Z,96703.84
2023-03-27T04:01:33.683Z,96707.50
2023-03-27T04:06:43.208Z,96704.47
2023-03-27T04:11:47.624Z,96708.94
2023-03-27T04:17:02.868Z,96703.31
2023-03-27T04:22:07.136Z,96707.38
2023-03-27T04:27:13.781Z,96704.59
2023-03-27T04:32:40.284Z,96704.59
2023-03-27T04:38:10.483Z,96709.97
2023-03-27T04:43:26.006Z,96713.19
2023-03-27T04:48:32.740Z,96712.00
2023-03-27T04:53:43.030Z,96716.41
2023-03-27T04:58:48.805Z,96726.38
2023-03-27T05:03:55.285Z,96725.31
2023-03-27T05:09:11.274Z,96720.69
2023-03-27T05:14:16.389Z,96730.16
2023-03-27T05:19:22.094Z,96733.75
2023-03-27T05:24:34.210Z,96738.94
2023-03-27T05:29:46.970Z,96732.94
2023-03-27T05:34:55.613Z,96731.25
2023-03-27T05:40:01.935Z,96741.50
2023-03-27T05:45:08.358Z,96745.88
2023-03-27T05:50:19.209Z,96742.59
2023-03-27T05:55:26.398Z,96753.06
2023-03-27T06:00:34.327Z,96761.22
2023-03-27T06:05:41.527Z,96762.13
2023-03-27T06:10:46.824Z,96765.28
2023-03-27T06:16:01.220Z,96768.50
2023-03-27T06:21:25.707Z,96769.09
2023-03-27T06:26:35.409Z,96791.50
2023-03-27T06:31:40.839Z,96800.31
2023-03-27T06:36:51.085Z,96809.63
2023-03-27T06:41:56.412Z,96810.94
2023-03-27T06:47:05.648Z,96829.88
2023-03-27T06:52:31.224Z,96843.28
2023-03-27T06:57:48.760Z,96864.66
2023-03-27T07:02:56.977Z,96876.97
2023-03-27T07:08:31.226Z,96889.16
2023-03-27T07:13:37.054Z,96898.41
2023-03-27T07:18:43.590Z,96920.75
2023-03-27T07:23:49.136Z,96922.38
2023-03-27T07:29:03.949Z,96943.88
2023-03-27T07:34:08.824Z,96936.97
2023-03-27T07:39:35.499Z,96953.47
2023-03-27T07:44:39.916Z,96963.31
2023-03-27T07:49:45.590Z,96963.03
2023-03-27T07:54:52.600Z,96979.94
2023-03-27T07:59:59.677Z,96992.63
2023-03-27T08:05:32.674Z,96987.34
2023-03-27T08:10:45.242Z,96989.75
2023-03-27T08:15:49.731Z,96998.16
2023-03-27T08:21:03.214Z,97005.91
2023-03-27T08:26:10.790Z,97011.56
2023-03-27T08:31:34.431Z,97021.06
2023-03-27T08:36:41.600Z,97030.59
2023-03-27T08:41:55.065Z,97040.13
2023-03-27T08:47:11.927Z,97046.59
2023-03-27T08:52:25.009Z,97062.69
2023-03-27T08:57:34.450Z,97060.72
2023-03-27T09:02:52.068Z,97065.38
2023-03-27T09:08:03.148Z,97067.44
2023-03-27T09:13:15.499Z,97082.41
2023-03-27T09:18:24.288Z,97079.34
2023-03-27T09:23:36.132Z,97087.75
2023-03-27T09:28:58.669Z,97108.00
2023-03-27T09:34:09.054Z,97125.22
2023-03-27T09:39:17.216Z,97123.16
2023-03-27T09:44:26.897Z,97129.00
2023-03-27T09:49:36.892Z,97123.75
2023-03-27T09:54:56.141Z,97139.19
2023-03-27T10:00:26.838Z,97129.28
2023-03-27T10:05:32.982Z,97134.41
2023-03-27T10:10:42.059Z,97148.31
2023-03-27T10:16:17.910Z,97149.97
2023-03-27T10:21:40.424Z,97153.31
2023-03-27T10:26:48.216Z,97170.94
2023-03-27T10:31:55.630Z,97182.19
2023-03-27T10:37:28.351Z,97186.28
2023-03-27T10:43:13.136Z,97180.28
2023-03-27T10:48:34.160Z,97192.94
2023-03-27T10:53:44.569Z,97190.38
2023-03-27T10:58:54.114Z,97198.78
2023-03-27T11:04:11.433Z,97212.06
2023-03-27T11:09:27.009Z,97207.34
2023-03-27T11:14:49.391Z,97215.63
2023-03-27T11:20:07.584Z,97227.47
2023-03-27T11:25:43.546Z,97221.66
2023-03-27T11:30:58.608Z,97243.06
2023-03-27T11:36:37.575Z,97242.94
2023-03-27T11:41:52.188Z,97252.88
2023-03-27T11:47:11.566Z,97253.34
2023-03-27T11:52:27.309Z,97260.31
2023-03-27T11:57:40.422Z,97264.97
2023-03-27T12:03:20.499Z,97286.03
2023-03-27T12:08:33.488Z,97293.09
2023-03-27T12:14:02.685Z,97297.91
2023-03-27T12:19:38.191Z,97303.22
2023-03-27T12:25:15.415Z,97321.41
2023-03-27T12:30:48.532Z,97328.69
2023-03-27T12:35:58.469Z,97334.41
2023-03-27T12:41:13.883Z,97331.88
2023-03-27T12:46:36.448Z,97346.19
2023-03-27T12:51:44.520Z,97355.50
2023-03-27T12:57:05.280Z,97361.69
2023-03-27T13:02:42.983Z,97383.97
2023-03-27T13:07:54.987Z,97390.53
2023-03-27T13:13:40.143Z,97416.69
2023-03-27T13:18:59.657Z,97428.59
2023-03-27T13:24:17.379Z,97429.69
2023-03-27T13:29:24.928Z,97435.72
2023-03-27T13:34:40.373Z,97438.13
2023-03-27T13:40:07.301Z,97445.09
2023-03-27T13:45:18.811Z,97449.28
2023-03-27T13:51:27.124Z,97464.09
2023-03-27T13:56:41.324Z,97457.53
2023-03-27T14:02:04.762Z,97470.66
2023-03-27T14:07:41.469Z,97481.72
2023-03-27T14:13:01.547Z,97484.88
2023-03-27T14:18:43.921Z,97477.38
2023-03-27T14:23:51.831Z,97477.72
2023-03-27T14:29:06.126Z,97465.13
2023-03-27T14:34:35.325Z,97471.41
2023-03-27T14:40:20.595Z,97484.00
2023-03-27T14:45:27.955Z,97489.53
2023-03-27T14:50:36.288Z,97515.16
2023-03-27T14:55:42.686Z,97522.06
2023-03-27T15:01:17.496Z,97539.31
2023-03-27T15:06:28.409Z,97548.66
2023-03-27T15:11:41.065Z,97562.47
2023-03-27T15:17:00.538Z,97570.53
2023-03-27T15:22:08.462Z,97588.34
2023-03-27T15:27:19.511Z,97595.72
2023-03-27T15:32:23.679Z,97616.72
2023-03-27T15:37:30.878Z,97624.72
2023-03-27T15:42:47.715Z,97628.34
2023-03-27T15:47:59.984Z,97629.59
2023-03-27T15:53:05.636Z,97648.50
2023-03-27T15:58:18.445Z,97665.53
2023-03-27T16:03:25.655Z,97671.00
2023-03-27T16:08:33.779Z,97676.59
2023-03-27T16:13:43.347Z,97689.84
2023-03-27T16:18:47.666Z,97685.06
2023-03-27T16:23:53.308Z,97688.03
2023-03-27T16:29:01.722Z,97706.38
2023-03-27T16:34:12.417Z,97707.19
2023-03-27T16:39:28.795Z,97716.00
2023-03-27T16:44:33.137Z,97720.09
2023-03-27T16:49:37.466Z,97713.75
2023-03-27T16:54:44.750Z,97724.63
2023-03-27T16:59:48.646Z,97726.25
2023-03-27T17:04:53.333Z,97739.00
2023-03-27T17:09:58.812Z,97736.94
2023-03-27T17:15:03.673Z,97746.53
2023-03-27T17:20:09.034Z,97755.50
2023-03-27T17:25:14.514Z,97764.81
2023-03-27T17:30:30.527Z,97771.13
2023-03-27T17:35:42.301Z,97772.34
2023-03-27T17:40:48.141Z,97772.69
2023-03-27T17:45:52.159Z,97784.38
2023-03-27T17:51:08.240Z,97790.63
2023-03-27T17:56:15.280Z,97801.34
2023-03-27T18:01:23.174Z,97810.25
2023-03-27T18:06:27.944Z,97813.63
2023-03-27T18:11:33.575Z,97803.91
2023-03-27T18:16:37.908Z,97822.44
2023-03-27T18:21:42.199Z,97817.38
2023-03-27T18:26:48.173Z,97824.34
2023-03-27T18:31:52.373Z,97824.97
2023-03-27T18:36:56.406Z,97838.69
2023-03-27T18:42:02.455Z,97842.19
2023-03-27T18:47:06.693Z,97847.59
2023-03-27T18:52:12.056Z,97856.63
2023-03-27T18:57:19.956Z,97854.59
2023-03-27T19:02:25.908Z,97854.91
2023-03-27T19:07:30.820Z,97845.19
2023-03-27T19:12:36.993Z,97854.69
2023-03-27T19:18:14.238Z,97861.94
2023-03-27T19:23:28.235Z,97867.94
2023-03-27T19:28:33.735Z,97869.50
2023-03-27T19:33:37.829Z,97867.16
2023-03-27T19:38:42.929Z,97879.81
2023-03-27T19:43:50.171Z,97888.28
2023-03-27T19:48:54.288Z,97892.72
2023-03-27T19:54:15.125Z,97894.84
2023-03-27T19:59:30.406Z,97896.03
2023-03-27T20:04:35.668Z,97896.50
2023-03-27T20:09:40.078Z,97900.81
2023-03-27T20:14:54.623Z,97898.25
2023-03-27T20:20:12.051Z,97905.84
2023-03-27T20:25:16.297Z,97912.38
2023-03-27T20:30:23.160Z,97912.63
2023-03-27T20:35:27.394Z,97908.16
2023-03-27T20:40:53.002Z,97906.66
2023-03-27T20:46:05.450Z,97913.53
2023-03-27T20:51:14.697Z,97904.66
2023-03-27T20:56:20.841Z,97906.97
2023-03-27T21:01:27.468Z,97908.09
2023-03-27T21:06:32.079Z,97918.81
2023-03-27T21:11:36.619Z,97912.88
2023-03-27T21:16:42.417Z,97919.25
2023-03-27T21:21:46.929Z,97911.19
2023-03-27T21:26:51.244Z,97912.94
2023-03-27T21:31:56.973Z,97920.94
2023-03-27T21:37:02.760Z,97923.41
2023-03-27T21:42:07.089Z,97915.91
2023-03-27T21:47:12.608Z,97919.00
2023-03-27T21:52:16.704Z,97923.69
2023-03-27T21:57:20.757Z,97916.56
2023-03-27T22:02:26.556Z,97907.03
2023-03-27T22:07:31.041Z,97907.50
2023-03-27T22:12:36.074Z,97906.59
2023-03-27T22:17:42.186Z,97897.22
2023-03-27T22:22:46.607Z,97908.53
2023-03-27T22:27:51.111Z,97906.34
2023-03-27T22:32:56.687Z,97909.84
2023-03-27T22:38:00.924Z,97912.28
2023-03-27T22:43:05.181Z,97912.00
2023-03-27T22:48:10.958Z,97907.44
2023-03-27T22:53:15.063Z,97908.06
2023-03-27T22:58:20.186Z,97893.44
2023-03-27T23:03:27.438Z,97903.34
2023-03-27T23:08:32.006Z,97916.81
2023-03-27T23:13:38.052Z,97909.78
2023-03-27T23:18:43.735Z,97913.94
2023-03-27T23:23:48.094Z,97918.16
2023-03-27T23:28:52.593Z,97924.78
2023-03-27T23:33:58.291Z,97920.19
2023-03-27T23:39:02.824Z,97921.34
2023-03-27T23:44:08.265Z,97927.25
2023-03-27T23:49:14.860Z,97928.91
2023-03-27T23:54:18.961Z,97937.91
2023-03-27T23:59:23.238Z,97933.63
